sensor_id;sensor_type;location;lat;lon;timestamp;P1;durP1;ratioP1;P2;durP2;ratioP2
58152;SDS011;43967;51.634;5.566;2023-05-10T00:01:38;6.05;;;2.47;;
58152;SDS011;43967;51.634;5.566;2023-05-10T00:06:59;5.95;;;2.30;;
58152;SDS011;43967;51.634;5.566;2023-05-10T00:12:20;5.70;;;2.23;;
58152;SDS011;43967;51.634;5.566;2023-05-10T00:17:42;6.45;;;2.30;;
58152;SDS011;43967;51.634;5.566;2023-05-10T00:23:03;6.65;;;2.33;;
58152;SDS011;43967;51.634;5.566;2023-05-10T00:28:24;6.17;;;2.50;;
58152;SDS011;43967;51.634;5.566;2023-05-10T00:33:47;6.17;;;2.43;;
58152;SDS011;43967;51.634;5.566;2023-05-10T00:39:08;6.07;;;2.50;;
58152;SDS011;43967;51.634;5.566;2023-05-10T00:44:30;6.32;;;2.80;;
58152;SDS011;43967;51.634;5.566;2023-05-10T00:49:51;6.67;;;2.30;;
58152;SDS011;43967;51.634;5.566;2023-05-10T00:55:12;6.65;;;2.88;;
58152;SDS011;43967;51.634;5.566;2023-05-10T01:00:34;6.55;;;2.65;;
58152;SDS011;43967;51.634;5.566;2023-05-10T01:05:57;6.93;;;3.23;;
58152;SDS011;43967;51.634;5.566;2023-05-10T01:11:18;6.80;;;2.65;;
58152;SDS011;43967;51.634;5.566;2023-05-10T01:16:40;6.22;;;2.53;;
58152;SDS011;43967;51.634;5.566;2023-05-10T01:28:07;6.80;;;2.97;;
58152;SDS011;43967;51.634;5.566;2023-05-10T01:33:56;7.93;;;3.28;;
58152;SDS011;43967;51.634;5.566;2023-05-10T01:39:32;6.88;;;2.72;;
58152;SDS011;43967;51.634;5.566;2023-05-10T01:45:27;6.93;;;3.10;;
58152;SDS011;43967;51.634;5.566;2023-05-10T01:50:52;7.97;;;2.95;;
58152;SDS011;43967;51.634;5.566;2023-05-10T01:56:17;7.65;;;3.22;;
58152;SDS011;43967;51.634;5.566;2023-05-10T02:01:43;7.43;;;3.30;;
58152;SDS011;43967;51.634;5.566;2023-05-10T02:07:06;7.70;;;3.50;;
58152;SDS011;43967;51.634;5.566;2023-05-10T02:12:29;8.32;;;3.70;;
58152;SDS011;43967;51.634;5.566;2023-05-10T02:17:52;7.60;;;3.47;;
58152;SDS011;43967;51.634;5.566;2023-05-10T02:23:15;8.27;;;3.60;;
58152;SDS011;43967;51.634;5.566;2023-05-10T02:28:38;9.10;;;4.18;;
58152;SDS011;43967;51.634;5.566;2023-05-10T02:34:01;9.15;;;4.28;;
58152;SDS011;43967;51.634;5.566;2023-05-10T02:39:24;8.93;;;3.93;;
58152;SDS011;43967;51.634;5.566;2023-05-10T02:44:48;8.80;;;3.97;;
58152;SDS011;43967;51.634;5.566;2023-05-10T02:50:11;9.52;;;4.05;;
58152;SDS011;43967;51.634;5.566;2023-05-10T02:55:38;9.57;;;4.20;;
58152;SDS011;43967;51.634;5.566;2023-05-10T03:01:01;9.88;;;4.45;;
58152;SDS011;43967;51.634;5.566;2023-05-10T03:06:22;10.48;;;4.50;;
58152;SDS011;43967;51.634;5.566;2023-05-10T03:11:53;9.93;;;4.87;;
58152;SDS011;43967;51.634;5.566;2023-05-10T03:23:04;10.35;;;4.57;;
58152;SDS011;43967;51.634;5.566;2023-05-10T03:28:34;9.80;;;4.95;;
58152;SDS011;43967;51.634;5.566;2023-05-10T03:33:56;10.07;;;4.93;;
58152;SDS011;43967;51.634;5.566;2023-05-10T03:39:17;10.52;;;5.05;;
58152;SDS011;43967;51.634;5.566;2023-05-10T03:44:39;10.35;;;5.30;;
58152;SDS011;43967;51.634;5.566;2023-05-10T03:50:00;10.97;;;5.60;;
58152;SDS011;43967;51.634;5.566;2023-05-10T03:55:21;10.73;;;4.82;;
58152;SDS011;43967;51.634;5.566;2023-05-10T04:00:43;10.90;;;5.47;;
58152;SDS011;43967;51.634;5.566;2023-05-10T04:06:04;10.33;;;5.10;;
58152;SDS011;43967;51.634;5.566;2023-05-10T04:11:26;10.53;;;4.80;;
58152;SDS011;43967;51.634;5.566;2023-05-10T04:16:47;9.93;;;4.80;;
58152;SDS011;43967;51.634;5.566;2023-05-10T04:22:08;9.65;;;4.95;;
58152;SDS011;43967;51.634;5.566;2023-05-10T04:27:30;9.90;;;5.07;;
58152;SDS011;43967;51.634;5.566;2023-05-10T04:32:51;10.27;;;5.18;;
58152;SDS011;43967;51.634;5.566;2023-05-10T04:38:12;10.07;;;4.80;;
58152;SDS011;43967;51.634;5.566;2023-05-10T04:43:34;9.67;;;5.40;;
58152;SDS011;43967;51.634;5.566;2023-05-10T04:48:55;10.38;;;5.07;;
58152;SDS011;43967;51.634;5.566;2023-05-10T04:54:17;9.50;;;4.80;;
58152;SDS011;43967;51.634;5.566;2023-05-10T04:59:38;10.17;;;5.23;;
58152;SDS011;43967;51.634;5.566;2023-05-10T05:04:59;10.80;;;5.30;;
58152;SDS011;43967;51.634;5.566;2023-05-10T05:10:21;10.35;;;5.10;;
58152;SDS011;43967;51.634;5.566;2023-05-10T05:15:42;10.43;;;5.07;;
58152;SDS011;43967;51.634;5.566;2023-05-10T05:21:12;9.27;;;4.50;;
58152;SDS011;43967;51.634;5.566;2023-05-10T05:26:34;9.82;;;4.80;;
58152;SDS011;43967;51.634;5.566;2023-05-10T05:31:56;9.48;;;4.97;;
58152;SDS011;43967;51.634;5.566;2023-05-10T05:37:18;10.13;;;4.70;;
58152;SDS011;43967;51.634;5.566;2023-05-10T05:42:40;10.35;;;4.90;;
58152;SDS011;43967;51.634;5.566;2023-05-10T05:48:02;9.35;;;4.90;;
58152;SDS011;43967;51.634;5.566;2023-05-10T05:53:23;10.73;;;4.97;;
58152;SDS011;43967;51.634;5.566;2023-05-10T05:58:44;10.40;;;5.13;;
58152;SDS011;43967;51.634;5.566;2023-05-10T06:04:06;10.18;;;5.32;;
58152;SDS011;43967;51.634;5.566;2023-05-10T06:09:29;10.00;;;4.90;;
58152;SDS011;43967;51.634;5.566;2023-05-10T06:14:50;10.00;;;5.10;;
58152;SDS011;43967;51.634;5.566;2023-05-10T06:20:12;9.75;;;4.55;;
58152;SDS011;43967;51.634;5.566;2023-05-10T06:25:33;9.18;;;4.40;;
58152;SDS011;43967;51.634;5.566;2023-05-10T06:30:54;8.60;;;4.40;;
58152;SDS011;43967;51.634;5.566;2023-05-10T06:36:16;9.20;;;4.45;;
58152;SDS011;43967;51.634;5.566;2023-05-10T06:41:37;8.63;;;4.35;;
58152;SDS011;43967;51.634;5.566;2023-05-10T06:46:58;9.30;;;5.00;;
58152;SDS011;43967;51.634;5.566;2023-05-10T06:52:20;9.23;;;4.53;;
58152;SDS011;43967;51.634;5.566;2023-05-10T06:57:41;8.95;;;4.68;;
58152;SDS011;43967;51.634;5.566;2023-05-10T07:03:02;10.65;;;5.18;;
58152;SDS011;43967;51.634;5.566;2023-05-10T07:08:23;10.17;;;4.50;;
58152;SDS011;43967;51.634;5.566;2023-05-10T07:13:45;10.13;;;4.95;;
58152;SDS011;43967;51.634;5.566;2023-05-10T07:19:06;9.95;;;4.80;;
58152;SDS011;43967;51.634;5.566;2023-05-10T07:24:27;9.20;;;4.50;;
58152;SDS011;43967;51.634;5.566;2023-05-10T07:29:49;9.82;;;4.90;;
58152;SDS011;43967;51.634;5.566;2023-05-10T07:35:10;9.23;;;4.30;;
58152;SDS011;43967;51.634;5.566;2023-05-10T07:40:31;10.13;;;5.17;;
58152;SDS011;43967;51.634;5.566;2023-05-10T07:45:53;9.17;;;4.77;;
58152;SDS011;43967;51.634;5.566;2023-05-10T07:51:14;9.40;;;5.00;;
58152;SDS011;43967;51.634;5.566;2023-05-10T07:56:35;9.80;;;4.80;;
58152;SDS011;43967;51.634;5.566;2023-05-10T08:01:57;9.10;;;4.33;;
58152;SDS011;43967;51.634;5.566;2023-05-10T08:07:18;9.13;;;4.20;;
58152;SDS011;43967;51.634;5.566;2023-05-10T08:12:39;9.27;;;4.40;;
58152;SDS011;43967;51.634;5.566;2023-05-10T08:18:00;9.03;;;4.37;;
58152;SDS011;43967;51.634;5.566;2023-05-10T08:23:22;10.27;;;4.30;;
58152;SDS011;43967;51.634;5.566;2023-05-10T08:28:43;9.00;;;4.53;;
58152;SDS011;43967;51.634;5.566;2023-05-10T08:34:04;9.77;;;5.23;;
58152;SDS011;43967;51.634;5.566;2023-05-10T08:39:25;8.57;;;4.43;;
58152;SDS011;43967;51.634;5.566;2023-05-10T08:44:47;8.70;;;4.43;;
58152;SDS011;43967;51.634;5.566;2023-05-10T08:50:09;9.05;;;4.60;;
58152;SDS011;43967;51.634;5.566;2023-05-10T08:55:31;8.73;;;4.07;;
58152;SDS011;43967;51.634;5.566;2023-05-10T09:00:53;9.02;;;4.47;;
58152;SDS011;43967;51.634;5.566;2023-05-10T09:06:17;8.75;;;4.30;;
58152;SDS011;43967;51.634;5.566;2023-05-10T09:11:38;9.00;;;4.30;;
58152;SDS011;43967;51.634;5.566;2023-05-10T09:17:00;8.90;;;4.13;;
58152;SDS011;43967;51.634;5.566;2023-05-10T09:22:21;8.60;;;4.32;;
58152;SDS011;43967;51.634;5.566;2023-05-10T09:27:46;9.10;;;4.77;;
58152;SDS011;43967;51.634;5.566;2023-05-10T09:33:08;10.10;;;4.67;;
58152;SDS011;43967;51.634;5.566;2023-05-10T09:38:30;9.07;;;4.18;;
58152;SDS011;43967;51.634;5.566;2023-05-10T09:44:06;8.73;;;4.40;;
58152;SDS011;43967;51.634;5.566;2023-05-10T09:49:28;8.93;;;4.13;;
58152;SDS011;43967;51.634;5.566;2023-05-10T09:54:53;8.25;;;3.88;;
58152;SDS011;43967;51.634;5.566;2023-05-10T10:00:16;8.25;;;3.78;;
58152;SDS011;43967;51.634;5.566;2023-05-10T10:05:40;8.60;;;4.00;;
58152;SDS011;43967;51.634;5.566;2023-05-10T10:11:02;8.00;;;3.83;;
58152;SDS011;43967;51.634;5.566;2023-05-10T10:16:24;8.27;;;3.97;;
58152;SDS011;43967;51.634;5.566;2023-05-10T10:21:47;8.13;;;4.03;;
58152;SDS011;43967;51.634;5.566;2023-05-10T10:27:20;9.00;;;4.77;;
58152;SDS011;43967;51.634;5.566;2023-05-10T10:49:43;8.25;;;4.05;;
58152;SDS011;43967;51.634;5.566;2023-05-10T10:55:11;7.75;;;3.60;;
58152;SDS011;43967;51.634;5.566;2023-05-10T11:00:36;7.83;;;4.10;;
58152;SDS011;43967;51.634;5.566;2023-05-10T11:05:58;8.35;;;3.63;;
58152;SDS011;43967;51.634;5.566;2023-05-10T11:11:20;7.60;;;3.25;;
58152;SDS011;43967;51.634;5.566;2023-05-10T11:16:42;8.57;;;4.43;;
58152;SDS011;43967;51.634;5.566;2023-05-10T11:27:25;7.63;;;3.75;;
58152;SDS011;43967;51.634;5.566;2023-05-10T11:32:46;8.10;;;3.90;;
58152;SDS011;43967;51.634;5.566;2023-05-10T11:38:08;7.97;;;3.40;;
58152;SDS011;43967;51.634;5.566;2023-05-10T11:43:31;8.27;;;3.42;;
58152;SDS011;43967;51.634;5.566;2023-05-10T11:48:53;7.82;;;3.42;;
58152;SDS011;43967;51.634;5.566;2023-05-10T11:54:18;8.17;;;3.93;;
58152;SDS011;43967;51.634;5.566;2023-05-10T11:59:40;7.53;;;3.78;;
58152;SDS011;43967;51.634;5.566;2023-05-10T12:05:01;7.47;;;3.53;;
58152;SDS011;43967;51.634;5.566;2023-05-10T12:10:24;7.83;;;3.40;;
58152;SDS011;43967;51.634;5.566;2023-05-10T12:15:47;7.80;;;3.40;;
58152;SDS011;43967;51.634;5.566;2023-05-10T12:21:11;7.35;;;3.63;;
58152;SDS011;43967;51.634;5.566;2023-05-10T12:26:33;7.65;;;3.63;;
58152;SDS011;43967;51.634;5.566;2023-05-10T12:31:57;7.87;;;3.20;;
58152;SDS011;43967;51.634;5.566;2023-05-10T12:37:23;7.57;;;3.67;;
58152;SDS011;43967;51.634;5.566;2023-05-10T12:42:45;7.88;;;3.25;;
58152;SDS011;43967;51.634;5.566;2023-05-10T12:48:07;7.93;;;3.60;;
58152;SDS011;43967;51.634;5.566;2023-05-10T12:53:28;7.55;;;3.58;;
58152;SDS011;43967;51.634;5.566;2023-05-10T12:58:49;7.68;;;3.40;;
58152;SDS011;43967;51.634;5.566;2023-05-10T13:04:11;7.60;;;3.33;;
58152;SDS011;43967;51.634;5.566;2023-05-10T13:09:32;6.93;;;3.03;;
58152;SDS011;43967;51.634;5.566;2023-05-10T13:14:54;7.47;;;3.45;;
58152;SDS011;43967;51.634;5.566;2023-05-10T13:20:15;8.10;;;3.10;;
58152;SDS011;43967;51.634;5.566;2023-05-10T13:25:37;6.80;;;3.07;;
58152;SDS011;43967;51.634;5.566;2023-05-10T13:30:58;6.85;;;3.03;;
58152;SDS011;43967;51.634;5.566;2023-05-10T13:36:19;7.30;;;3.30;;
58152;SDS011;43967;51.634;5.566;2023-05-10T13:41:40;7.00;;;3.07;;
58152;SDS011;43967;51.634;5.566;2023-05-10T13:47:02;8.18;;;3.10;;
58152;SDS011;43967;51.634;5.566;2023-05-10T13:52:23;7.50;;;3.00;;
58152;SDS011;43967;51.634;5.566;2023-05-10T13:57:44;6.93;;;3.20;;
58152;SDS011;43967;51.634;5.566;2023-05-10T14:03:06;7.93;;;3.23;;
58152;SDS011;43967;51.634;5.566;2023-05-10T14:08:27;7.63;;;3.25;;
58152;SDS011;43967;51.634;5.566;2023-05-10T14:13:48;7.85;;;3.10;;
58152;SDS011;43967;51.634;5.566;2023-05-10T14:19:10;6.67;;;2.87;;
58152;SDS011;43967;51.634;5.566;2023-05-10T14:24:31;7.22;;;3.05;;
58152;SDS011;43967;51.634;5.566;2023-05-10T14:29:53;7.00;;;2.58;;
58152;SDS011;43967;51.634;5.566;2023-05-10T14:35:14;6.53;;;2.73;;
58152;SDS011;43967;51.634;5.566;2023-05-10T14:40:35;7.75;;;3.25;;
58152;SDS011;43967;51.634;5.566;2023-05-10T14:45:57;6.43;;;2.53;;
58152;SDS011;43967;51.634;5.566;2023-05-10T14:51:18;7.63;;;2.80;;
58152;SDS011;43967;51.634;5.566;2023-05-10T14:56:39;6.30;;;3.00;;
58152;SDS011;43967;51.634;5.566;2023-05-10T15:02:01;6.70;;;2.80;;
58152;SDS011;43967;51.634;5.566;2023-05-10T15:07:23;7.03;;;3.33;;
58152;SDS011;43967;51.634;5.566;2023-05-10T15:12:44;7.83;;;3.07;;
58152;SDS011;43967;51.634;5.566;2023-05-10T15:18:05;7.00;;;3.28;;
58152;SDS011;43967;51.634;5.566;2023-05-10T15:23:27;7.32;;;3.00;;
58152;SDS011;43967;51.634;5.566;2023-05-10T15:28:48;7.87;;;3.10;;
58152;SDS011;43967;51.634;5.566;2023-05-10T15:34:09;6.78;;;2.88;;
58152;SDS011;43967;51.634;5.566;2023-05-10T15:39:30;7.05;;;3.10;;
58152;SDS011;43967;51.634;5.566;2023-05-10T15:44:51;8.03;;;3.13;;
58152;SDS011;43967;51.634;5.566;2023-05-10T15:50:14;6.67;;;2.87;;
58152;SDS011;43967;51.634;5.566;2023-05-10T15:55:35;8.18;;;3.42;;
58152;SDS011;43967;51.634;5.566;2023-05-10T16:00:57;7.85;;;3.40;;
58152;SDS011;43967;51.634;5.566;2023-05-10T16:06:18;8.03;;;2.97;;
58152;SDS011;43967;51.634;5.566;2023-05-10T16:11:39;6.90;;;3.35;;
58152;SDS011;43967;51.634;5.566;2023-05-10T16:17:02;8.45;;;3.58;;
58152;SDS011;43967;51.634;5.566;2023-05-10T16:22:24;7.43;;;3.57;;
58152;SDS011;43967;51.634;5.566;2023-05-10T16:27:46;7.15;;;3.03;;
58152;SDS011;43967;51.634;5.566;2023-05-10T16:33:07;7.35;;;3.35;;
58152;SDS011;43967;51.634;5.566;2023-05-10T16:38:28;6.70;;;3.20;;
58152;SDS011;43967;51.634;5.566;2023-05-10T16:43:50;6.97;;;3.03;;
58152;SDS011;43967;51.634;5.566;2023-05-10T16:49:12;6.85;;;3.10;;
58152;SDS011;43967;51.634;5.566;2023-05-10T16:54:34;6.78;;;2.88;;
58152;SDS011;43967;51.634;5.566;2023-05-10T16:59:55;7.13;;;3.20;;
58152;SDS011;43967;51.634;5.566;2023-05-10T17:05:16;6.93;;;3.20;;
58152;SDS011;43967;51.634;5.566;2023-05-10T17:10:38;7.60;;;3.72;;
58152;SDS011;43967;51.634;5.566;2023-05-10T17:16:00;7.37;;;3.10;;
58152;SDS011;43967;51.634;5.566;2023-05-10T17:21:22;7.57;;;3.28;;
58152;SDS011;43967;51.634;5.566;2023-05-10T17:26:43;8.68;;;3.28;;
58152;SDS011;43967;51.634;5.566;2023-05-10T17:32:04;7.47;;;3.13;;
58152;SDS011;43967;51.634;5.566;2023-05-10T17:37:26;7.97;;;3.40;;
58152;SDS011;43967;51.634;5.566;2023-05-10T17:42:47;7.80;;;3.92;;
58152;SDS011;43967;51.634;5.566;2023-05-10T17:48:08;7.03;;;3.40;;
58152;SDS011;43967;51.634;5.566;2023-05-10T17:53:30;7.60;;;3.20;;
58152;SDS011;43967;51.634;5.566;2023-05-10T17:58:51;7.78;;;3.70;;
58152;SDS011;43967;51.634;5.566;2023-05-10T18:04:12;7.70;;;3.22;;
58152;SDS011;43967;51.634;5.566;2023-05-10T18:09:35;7.57;;;3.50;;
58152;SDS011;43967;51.634;5.566;2023-05-10T18:14:58;8.07;;;3.50;;
58152;SDS011;43967;51.634;5.566;2023-05-10T18:20:19;7.47;;;3.60;;
58152;SDS011;43967;51.634;5.566;2023-05-10T18:25:40;7.30;;;3.27;;
58152;SDS011;43967;51.634;5.566;2023-05-10T18:31:02;7.63;;;3.67;;
58152;SDS011;43967;51.634;5.566;2023-05-10T18:36:23;7.22;;;3.22;;
58152;SDS011;43967;51.634;5.566;2023-05-10T18:41:44;6.97;;;3.53;;
58152;SDS011;43967;51.634;5.566;2023-05-10T18:47:06;6.70;;;3.10;;
58152;SDS011;43967;51.634;5.566;2023-05-10T18:52:28;7.18;;;3.13;;
58152;SDS011;43967;51.634;5.566;2023-05-10T18:57:49;7.40;;;3.08;;
58152;SDS011;43967;51.634;5.566;2023-05-10T19:03:10;7.17;;;3.20;;
58152;SDS011;43967;51.634;5.566;2023-05-10T19:08:31;7.60;;;3.28;;
58152;SDS011;43967;51.634;5.566;2023-05-10T19:13:53;6.80;;;3.00;;
58152;SDS011;43967;51.634;5.566;2023-05-10T19:19:14;7.03;;;3.00;;
58152;SDS011;43967;51.634;5.566;2023-05-10T19:24:35;7.77;;;3.17;;
58152;SDS011;43967;51.634;5.566;2023-05-10T19:29:57;7.35;;;3.17;;
58152;SDS011;43967;51.634;5.566;2023-05-10T19:35:18;7.18;;;3.60;;
58152;SDS011;43967;51.634;5.566;2023-05-10T19:40:39;6.60;;;3.10;;
58152;SDS011;43967;51.634;5.566;2023-05-10T19:46:01;7.28;;;3.20;;
58152;SDS011;43967;51.634;5.566;2023-05-10T19:51:23;7.00;;;2.80;;
58152;SDS011;43967;51.634;5.566;2023-05-10T19:56:46;6.67;;;3.00;;
58152;SDS011;43967;51.634;5.566;2023-05-10T20:02:07;6.68;;;2.70;;
58152;SDS011;43967;51.634;5.566;2023-05-10T20:07:28;7.22;;;2.90;;
58152;SDS011;43967;51.634;5.566;2023-05-10T20:12:50;7.67;;;2.97;;
58152;SDS011;43967;51.634;5.566;2023-05-10T20:18:12;7.43;;;3.23;;
58152;SDS011;43967;51.634;5.566;2023-05-10T20:23:33;7.65;;;3.20;;
58152;SDS011;43967;51.634;5.566;2023-05-10T20:28:56;6.65;;;3.15;;
58152;SDS011;43967;51.634;5.566;2023-05-10T20:34:17;6.40;;;2.80;;
58152;SDS011;43967;51.634;5.566;2023-05-10T20:39:38;6.60;;;3.30;;
58152;SDS011;43967;51.634;5.566;2023-05-10T20:45:00;6.20;;;2.80;;
58152;SDS011;43967;51.634;5.566;2023-05-10T20:50:21;6.90;;;3.10;;
58152;SDS011;43967;51.634;5.566;2023-05-10T20:55:42;7.43;;;3.10;;
58152;SDS011;43967;51.634;5.566;2023-05-10T21:01:03;6.85;;;3.13;;
58152;SDS011;43967;51.634;5.566;2023-05-10T21:06:25;7.93;;;3.00;;
58152;SDS011;43967;51.634;5.566;2023-05-10T21:11:46;7.93;;;3.77;;
58152;SDS011;43967;51.634;5.566;2023-05-10T21:17:07;7.00;;;3.10;;
58152;SDS011;43967;51.634;5.566;2023-05-10T21:22:28;6.97;;;2.92;;
58152;SDS011;43967;51.634;5.566;2023-05-10T21:27:50;7.10;;;3.07;;
58152;SDS011;43967;51.634;5.566;2023-05-10T21:33:11;6.82;;;3.20;;
58152;SDS011;43967;51.634;5.566;2023-05-10T21:38:32;7.97;;;3.47;;
58152;SDS011;43967;51.634;5.566;2023-05-10T21:43:54;7.07;;;2.80;;
58152;SDS011;43967;51.634;5.566;2023-05-10T21:49:15;6.57;;;2.90;;
58152;SDS011;43967;51.634;5.566;2023-05-10T21:54:36;6.65;;;2.80;;
58152;SDS011;43967;51.634;5.566;2023-05-10T21:59:57;6.50;;;2.87;;
58152;SDS011;43967;51.634;5.566;2023-05-10T22:05:19;6.93;;;2.93;;
58152;SDS011;43967;51.634;5.566;2023-05-10T22:10:40;6.97;;;2.78;;
58152;SDS011;43967;51.634;5.566;2023-05-10T22:16:01;7.75;;;3.05;;
58152;SDS011;43967;51.634;5.566;2023-05-10T22:21:23;7.60;;;3.07;;
58152;SDS011;43967;51.634;5.566;2023-05-10T22:26:44;7.00;;;3.45;;
58152;SDS011;43967;51.634;5.566;2023-05-10T22:32:05;7.40;;;2.90;;
58152;SDS011;43967;51.634;5.566;2023-05-10T22:37:26;7.57;;;3.30;;
58152;SDS011;43967;51.634;5.566;2023-05-10T22:42:48;7.30;;;2.72;;
58152;SDS011;43967;51.634;5.566;2023-05-10T22:48:09;7.28;;;3.35;;
58152;SDS011;43967;51.634;5.566;2023-05-10T22:53:30;7.50;;;3.33;;
58152;SDS011;43967;51.634;5.566;2023-05-10T22:58:51;6.27;;;2.77;;
58152;SDS011;43967;51.634;5.566;2023-05-10T23:04:13;7.05;;;3.20;;
58152;SDS011;43967;51.634;5.566;2023-05-10T23:09:34;8.00;;;3.30;;
58152;SDS011;43967;51.634;5.566;2023-05-10T23:14:56;7.70;;;3.10;;
58152;SDS011;43967;51.634;5.566;2023-05-10T23:20:17;7.78;;;3.80;;
58152;SDS011;43967;51.634;5.566;2023-05-10T23:25:38;6.75;;;3.30;;
58152;SDS011;43967;51.634;5.566;2023-05-10T23:30:59;7.27;;;3.47;;
58152;SDS011;43967;51.634;5.566;2023-05-10T23:36:21;7.60;;;3.08;;
58152;SDS011;43967;51.634;5.566;2023-05-10T23:41:42;7.88;;;3.55;;
58152;SDS011;43967;51.634;5.566;2023-05-10T23:47:03;7.27;;;2.93;;
58152;SDS011;43967;51.634;5.566;2023-05-10T23:52:24;7.30;;;3.00;;
58152;SDS011;43967;51.634;5.566;2023-05-10T23:57:46;7.32;;;3.72;;
